Terminal Aerodrome Forecast
Issued by NWS

Home | Current Version | Previous Version | Text Only | Print | Product List | Glossary Off
Versions: 1 2 3 4 5 6 7 8 9 10 11 12 13 14 15 16

879
FTUS43 KUNR 142251 AAA
TAFGCC
TAF AMD
KGCC 142251Z 1423/1518 36013KT P6SM SCT100 BKN200
     FM150700 01009KT P6SM -SHRA OVC060
     FM151200 32004KT P6SM OVC070=

USA.gov is the U.S. government's official web portal to all federal, state and local government web resources and services.